sensor_id;sensor_type;location;lat;lon;timestamp;temperature;humidity
66722;SHT31;53633;49.932;10.884;2023-02-18T00:01:18;9.98;99.00
66722;SHT31;53633;49.932;10.884;2023-02-18T00:03:46;9.98;99.14
66722;SHT31;53633;49.932;10.884;2023-02-18T00:06:15;10.02;98.85
66722;SHT31;53633;49.932;10.884;2023-02-18T00:08:46;9.96;98.93
66722;SHT31;53633;49.932;10.884;2023-02-18T00:11:13;9.91;99.32
66722;SHT31;53633;49.932;10.884;2023-02-18T00:13:40;9.93;99.05
66722;SHT31;53633;49.932;10.884;2023-02-18T00:16:09;9.91;99.13
66722;SHT31;53633;49.932;10.884;2023-02-18T00:18:38;9.83;99.63
66722;SHT31;53633;49.932;10.884;2023-02-18T00:21:06;9.79;99.91
66722;SHT31;53633;49.932;10.884;2023-02-18T00:23:35;9.82;99.74
66722;SHT31;53633;49.932;10.884;2023-02-18T00:26:04;9.91;99.27
66722;SHT31;53633;49.932;10.884;2023-02-18T00:28:32;9.92;99.40
66722;SHT31;53633;49.932;10.884;2023-02-18T00:30:58;9.85;99.59
66722;SHT31;53633;49.932;10.884;2023-02-18T00:33:25;9.81;99.79
66722;SHT31;53633;49.932;10.884;2023-02-18T00:36:00;9.77;99.99
66722;SHT31;53633;49.932;10.884;2023-02-18T00:38:27;9.72;99.99
66722;SHT31;53633;49.932;10.884;2023-02-18T00:40:54;9.70;99.99
66722;SHT31;53633;49.932;10.884;2023-02-18T00:43:20;9.67;99.99
66722;SHT31;53633;49.932;10.884;2023-02-18T00:45:47;9.70;99.99
66722;SHT31;53633;49.932;10.884;2023-02-18T00:48:14;9.79;99.99
66722;SHT31;53633;49.932;10.884;2023-02-18T00:50:41;9.70;99.99
66722;SHT31;53633;49.932;10.884;2023-02-18T00:53:09;9.67;99.99
66722;SHT31;53633;49.932;10.884;2023-02-18T00:55:38;9.65;99.99
66722;SHT31;53633;49.932;10.884;2023-02-18T00:58:05;9.59;99.99
66722;SHT31;53633;49.932;10.884;2023-02-18T01:00:32;9.57;99.99
66722;SHT31;53633;49.932;10.884;2023-02-18T01:02:58;9.57;99.99
66722;SHT31;53633;49.932;10.884;2023-02-18T01:05:25;9.58;99.99
66722;SHT31;53633;49.932;10.884;2023-02-18T01:07:52;9.79;99.99
66722;SHT31;53633;49.932;10.884;2023-02-18T01:10:20;9.71;99.99
66722;SHT31;53633;49.932;10.884;2023-02-18T01:12:47;9.61;99.99
66722;SHT31;53633;49.932;10.884;2023-02-18T01:15:16;9.55;99.99
66722;SHT31;53633;49.932;10.884;2023-02-18T01:17:43;9.54;99.99
66722;SHT31;53633;49.932;10.884;2023-02-18T01:20:11;9.51;99.99
66722;SHT31;53633;49.932;10.884;2023-02-18T01:22:38;9.47;99.99
66722;SHT31;53633;49.932;10.884;2023-02-18T01:25:05;9.48;99.99
66722;SHT31;53633;49.932;10.884;2023-02-18T01:27:34;9.57;99.99
66722;SHT31;53633;49.932;10.884;2023-02-18T01:30:01;9.54;99.99
66722;SHT31;53633;49.932;10.884;2023-02-18T01:32:28;9.71;99.99
66722;SHT31;53633;49.932;10.884;2023-02-18T01:34:55;9.62;99.99
66722;SHT31;53633;49.932;10.884;2023-02-18T01:37:21;9.62;99.99
66722;SHT31;53633;49.932;10.884;2023-02-18T01:39:48;9.62;99.99
66722;SHT31;53633;49.932;10.884;2023-02-18T01:42:18;9.61;99.99
66722;SHT31;53633;49.932;10.884;2023-02-18T01:44:47;9.62;99.99
66722;SHT31;53633;49.932;10.884;2023-02-18T01:47:14;9.68;99.99
66722;SHT31;53633;49.932;10.884;2023-02-18T01:49:42;9.59;99.99
66722;SHT31;53633;49.932;10.884;2023-02-18T01:52:12;9.67;99.99
66722;SHT31;53633;49.932;10.884;2023-02-18T01:54:43;9.83;99.75
66722;SHT31;53633;49.932;10.884;2023-02-18T01:57:14;9.77;99.81
66722;SHT31;53633;49.932;10.884;2023-02-18T01:59:47;9.79;99.43
66722;SHT31;53633;49.932;10.884;2023-02-18T02:02:18;9.82;99.60
66722;SHT31;53633;49.932;10.884;2023-02-18T02:04:45;9.82;99.51
66722;SHT31;53633;49.932;10.884;2023-02-18T02:07:13;9.83;99.23
66722;SHT31;53633;49.932;10.884;2023-02-18T02:09:41;9.82;99.47
66722;SHT31;53633;49.932;10.884;2023-02-18T02:12:25;9.81;99.71
66722;SHT31;53633;49.932;10.884;2023-02-18T02:15:15;9.79;99.57
66722;SHT31;53633;49.932;10.884;2023-02-18T02:17:54;9.91;99.16
66722;SHT31;53633;49.932;10.884;2023-02-18T02:20:47;9.88;99.21
66722;SHT31;53633;49.932;10.884;2023-02-18T02:23:44;9.83;99.37
66722;SHT31;53633;49.932;10.884;2023-02-18T02:29:59;9.98;98.54
66722;SHT31;53633;49.932;10.884;2023-02-18T02:35:36;9.82;98.86
66722;SHT31;53633;49.932;10.884;2023-02-18T02:38:07;9.86;98.95
66722;SHT31;53633;49.932;10.884;2023-02-18T02:40:40;9.82;98.73
66722;SHT31;53633;49.932;10.884;2023-02-18T02:43:14;9.75;99.32
66722;SHT31;53633;49.932;10.884;2023-02-18T02:45:50;9.85;98.84
66722;SHT31;53633;49.932;10.884;2023-02-18T02:48:27;9.81;99.07
66722;SHT31;53633;49.932;10.884;2023-02-18T02:51:03;9.79;99.33
66722;SHT31;53633;49.932;10.884;2023-02-18T02:53:34;9.65;99.83
66722;SHT31;53633;49.932;10.884;2023-02-18T02:56:01;9.61;99.99
66722;SHT31;53633;49.932;10.884;2023-02-18T02:58:28;9.58;99.99
66722;SHT31;53633;49.932;10.884;2023-02-18T03:01:05;9.61;99.99
66722;SHT31;53633;49.932;10.884;2023-02-18T03:04:03;9.55;99.99
66722;SHT31;53633;49.932;10.884;2023-02-18T03:07:05;9.58;99.99
66722;SHT31;53633;49.932;10.884;2023-02-18T03:09:45;9.50;99.99
66722;SHT31;53633;49.932;10.884;2023-02-18T03:12:20;9.47;99.99
66722;SHT31;53633;49.932;10.884;2023-02-18T03:14:55;9.52;99.99
66722;SHT31;53633;49.932;10.884;2023-02-18T03:17:27;9.61;99.99
66722;SHT31;53633;49.932;10.884;2023-02-18T03:19:59;9.55;99.99
66722;SHT31;53633;49.932;10.884;2023-02-18T03:22:31;9.51;99.99
66722;SHT31;53633;49.932;10.884;2023-02-18T03:25:02;9.48;99.99
66722;SHT31;53633;49.932;10.884;2023-02-18T03:27:31;9.51;99.99
66722;SHT31;53633;49.932;10.884;2023-02-18T03:30:03;9.55;99.99
66722;SHT31;53633;49.932;10.884;2023-02-18T03:32:30;9.50;99.99
66722;SHT31;53633;49.932;10.884;2023-02-18T03:35:02;9.51;99.99
66722;SHT31;53633;49.932;10.884;2023-02-18T03:37:31;9.50;99.99
66722;SHT31;53633;49.932;10.884;2023-02-18T03:40:02;9.57;99.99
66722;SHT31;53633;49.932;10.884;2023-02-18T03:42:29;9.47;99.99
66722;SHT31;53633;49.932;10.884;2023-02-18T03:44:55;9.58;99.99
66722;SHT31;53633;49.932;10.884;2023-02-18T03:47:23;9.54;99.99
66722;SHT31;53633;49.932;10.884;2023-02-18T03:49:49;9.54;99.99
66722;SHT31;53633;49.932;10.884;2023-02-18T03:52:16;9.74;99.45
66722;SHT31;53633;49.932;10.884;2023-02-18T03:54:44;9.79;99.34
66722;SHT31;53633;49.932;10.884;2023-02-18T03:57:11;9.65;99.58
66722;SHT31;53633;49.932;10.884;2023-02-18T03:59:38;9.78;99.12
66722;SHT31;53633;49.932;10.884;2023-02-18T04:02:05;9.78;99.02
66722;SHT31;53633;49.932;10.884;2023-02-18T04:04:34;9.91;98.55
66722;SHT31;53633;49.932;10.884;2023-02-18T04:07:01;9.88;98.60
66722;SHT31;53633;49.932;10.884;2023-02-18T04:09:28;9.89;98.59
66722;SHT31;53633;49.932;10.884;2023-02-18T04:11:56;9.93;98.46
66722;SHT31;53633;49.932;10.884;2023-02-18T04:14:23;9.93;97.76
66722;SHT31;53633;49.932;10.884;2023-02-18T04:16:50;9.88;98.06
66722;SHT31;53633;49.932;10.884;2023-02-18T04:19:17;9.93;97.83
66722;SHT31;53633;49.932;10.884;2023-02-18T04:21:43;9.82;97.68
66722;SHT31;53633;49.932;10.884;2023-02-18T04:24:10;9.93;97.17
66722;SHT31;53633;49.932;10.884;2023-02-18T04:26:37;9.82;97.46
66722;SHT31;53633;49.932;10.884;2023-02-18T04:29:05;9.75;97.91
66722;SHT31;53633;49.932;10.884;2023-02-18T04:31:32;9.91;97.27
66722;SHT31;53633;49.932;10.884;2023-02-18T04:33:59;9.93;97.04
66722;SHT31;53633;49.932;10.884;2023-02-18T04:36:25;9.93;97.01
66722;SHT31;53633;49.932;10.884;2023-02-18T04:38:52;9.86;96.93
66722;SHT31;53633;49.932;10.884;2023-02-18T04:41:19;9.88;96.94
66722;SHT31;53633;49.932;10.884;2023-02-18T04:43:46;9.95;96.38
66722;SHT31;53633;49.932;10.884;2023-02-18T04:46:14;9.96;96.06
66722;SHT31;53633;49.932;10.884;2023-02-18T04:48:41;9.99;95.69
66722;SHT31;53633;49.932;10.884;2023-02-18T04:51:08;9.83;96.15
66722;SHT31;53633;49.932;10.884;2023-02-18T04:53:35;9.95;95.32
66722;SHT31;53633;49.932;10.884;2023-02-18T04:56:02;9.99;95.20
66722;SHT31;53633;49.932;10.884;2023-02-18T04:58:29;10.01;94.94
66722;SHT31;53633;49.932;10.884;2023-02-18T05:00:58;9.92;94.88
66722;SHT31;53633;49.932;10.884;2023-02-18T05:03:27;9.86;95.19
66722;SHT31;53633;49.932;10.884;2023-02-18T05:05:54;9.91;94.86
66722;SHT31;53633;49.932;10.884;2023-02-18T05:08:21;10.02;94.44
66722;SHT31;53633;49.932;10.884;2023-02-18T05:10:48;9.95;94.77
66722;SHT31;53633;49.932;10.884;2023-02-18T05:13:15;9.88;94.97
66722;SHT31;53633;49.932;10.884;2023-02-18T05:15:42;10.01;94.45
66722;SHT31;53633;49.932;10.884;2023-02-18T05:18:09;9.99;94.49
66722;SHT31;53633;49.932;10.884;2023-02-18T05:20:37;9.91;95.14
66722;SHT31;53633;49.932;10.884;2023-02-18T05:23:04;9.91;95.38
66722;SHT31;53633;49.932;10.884;2023-02-18T05:25:31;9.91;95.62
66722;SHT31;53633;49.932;10.884;2023-02-18T05:27:57;9.91;95.74
66722;SHT31;53633;49.932;10.884;2023-02-18T05:30:24;9.71;97.43
66722;SHT31;53633;49.932;10.884;2023-02-18T05:32:51;9.72;97.20
66722;SHT31;53633;49.932;10.884;2023-02-18T05:35:18;9.75;96.92
66722;SHT31;53633;49.932;10.884;2023-02-18T05:37:46;9.75;97.05
66722;SHT31;53633;49.932;10.884;2023-02-18T05:40:13;9.72;97.40
66722;SHT31;53633;49.932;10.884;2023-02-18T05:42:39;9.74;97.09
66722;SHT31;53633;49.932;10.884;2023-02-18T05:45:07;9.67;97.53
66722;SHT31;53633;49.932;10.884;2023-02-18T05:47:34;9.77;97.02
66722;SHT31;53633;49.932;10.884;2023-02-18T05:50:01;9.72;97.17
66722;SHT31;53633;49.932;10.884;2023-02-18T05:52:27;9.82;96.90
66722;SHT31;53633;49.932;10.884;2023-02-18T05:54:56;9.78;97.03
66722;SHT31;53633;49.932;10.884;2023-02-18T05:57:23;9.75;97.05
66722;SHT31;53633;49.932;10.884;2023-02-18T05:59:50;9.75;97.07
66722;SHT31;53633;49.932;10.884;2023-02-18T06:02:17;9.70;97.59
66722;SHT31;53633;49.932;10.884;2023-02-18T06:04:44;9.68;97.89
66722;SHT31;53633;49.932;10.884;2023-02-18T06:07:11;9.70;98.24
66722;SHT31;53633;49.932;10.884;2023-02-18T06:09:37;9.68;98.23
66722;SHT31;53633;49.932;10.884;2023-02-18T06:12:06;9.55;99.20
66722;SHT31;53633;49.932;10.884;2023-02-18T06:17:54;9.61;98.83
66722;SHT31;53633;49.932;10.884;2023-02-18T06:20:21;9.58;98.97
66722;SHT31;53633;49.932;10.884;2023-02-18T06:22:48;9.58;99.00
66722;SHT31;53633;49.932;10.884;2023-02-18T06:25:15;9.68;98.84
66722;SHT31;53633;49.932;10.884;2023-02-18T06:27:43;9.72;98.66
66722;SHT31;53633;49.932;10.884;2023-02-18T06:30:10;9.75;98.33
66722;SHT31;53633;49.932;10.884;2023-02-18T06:32:37;9.72;98.90
66722;SHT31;53633;49.932;10.884;2023-02-18T06:35:04;9.74;98.94
66722;SHT31;53633;49.932;10.884;2023-02-18T06:37:31;9.83;98.44
66722;SHT31;53633;49.932;10.884;2023-02-18T06:39:58;9.64;99.44
66722;SHT31;53633;49.932;10.884;2023-02-18T06:42:24;9.64;99.77
66722;SHT31;53633;49.932;10.884;2023-02-18T06:44:53;9.61;99.73
66722;SHT31;53633;49.932;10.884;2023-02-18T06:47:19;9.62;99.81
66722;SHT31;53633;49.932;10.884;2023-02-18T06:49:46;9.67;99.74
66722;SHT31;53633;49.932;10.884;2023-02-18T06:52:13;9.75;99.43
66722;SHT31;53633;49.932;10.884;2023-02-18T06:54:40;9.77;99.62
66722;SHT31;53633;49.932;10.884;2023-02-18T06:57:07;9.67;99.99
66722;SHT31;53633;49.932;10.884;2023-02-18T06:59:33;9.65;99.99
66722;SHT31;53633;49.932;10.884;2023-02-18T07:02:01;9.70;99.99
66722;SHT31;53633;49.932;10.884;2023-02-18T07:04:28;9.78;99.76
66722;SHT31;53633;49.932;10.884;2023-02-18T07:06:55;9.83;99.64
66722;SHT31;53633;49.932;10.884;2023-02-18T07:09:22;9.91;99.46
66722;SHT31;53633;49.932;10.884;2023-02-18T07:11:55;9.96;98.89
66722;SHT31;53633;49.932;10.884;2023-02-18T07:14:21;9.95;98.92
66722;SHT31;53633;49.932;10.884;2023-02-18T07:16:55;10.03;98.40
66722;SHT31;53633;49.932;10.884;2023-02-18T07:19:23;10.06;98.40
66722;SHT31;53633;49.932;10.884;2023-02-18T07:21:50;10.02;98.28
66722;SHT31;53633;49.932;10.884;2023-02-18T07:24:17;9.93;98.19
66722;SHT31;53633;49.932;10.884;2023-02-18T07:26:44;9.99;98.06
66722;SHT31;53633;49.932;10.884;2023-02-18T07:32:33;10.05;97.69
66722;SHT31;53633;49.932;10.884;2023-02-18T07:35:02;10.05;97.54
66722;SHT31;53633;49.932;10.884;2023-02-18T07:37:28;9.98;97.64
66722;SHT31;53633;49.932;10.884;2023-02-18T07:39:55;10.08;97.23
66722;SHT31;53633;49.932;10.884;2023-02-18T07:42:22;10.10;96.84
66722;SHT31;53633;49.932;10.884;2023-02-18T07:44:49;10.06;96.54
66722;SHT31;53633;49.932;10.884;2023-02-18T07:47:16;10.13;96.24
66722;SHT31;53633;49.932;10.884;2023-02-18T07:49:43;10.08;96.46
66722;SHT31;53633;49.932;10.884;2023-02-18T07:52:11;10.09;96.21
66722;SHT31;53633;49.932;10.884;2023-02-18T07:54:38;10.14;95.55
66722;SHT31;53633;49.932;10.884;2023-02-18T07:57:05;10.20;95.47
66722;SHT31;53633;49.932;10.884;2023-02-18T07:59:32;10.23;94.79
66722;SHT31;53633;49.932;10.884;2023-02-18T08:01:59;10.30;94.67
66722;SHT31;53633;49.932;10.884;2023-02-18T08:04:25;10.41;94.31
66722;SHT31;53633;49.932;10.884;2023-02-18T08:06:52;10.43;94.31
66722;SHT31;53633;49.932;10.884;2023-02-18T08:09:21;10.53;93.59
66722;SHT31;53633;49.932;10.884;2023-02-18T08:11:47;10.67;92.58
66722;SHT31;53633;49.932;10.884;2023-02-18T08:18:05;10.85;91.10
66722;SHT31;53633;49.932;10.884;2023-02-18T08:20:50;10.91;90.49
66722;SHT31;53633;49.932;10.884;2023-02-18T08:23:18;10.94;90.55
66722;SHT31;53633;49.932;10.884;2023-02-18T08:25:48;10.99;88.88
66722;SHT31;53633;49.932;10.884;2023-02-18T08:28:16;10.99;89.03
66722;SHT31;53633;49.932;10.884;2023-02-18T08:30:43;11.02;88.42
66722;SHT31;53633;49.932;10.884;2023-02-18T08:33:10;11.06;88.66
66722;SHT31;53633;49.932;10.884;2023-02-18T08:35:37;11.15;87.98
66722;SHT31;53633;49.932;10.884;2023-02-18T08:38:04;11.26;87.65
66722;SHT31;53633;49.932;10.884;2023-02-18T08:40:31;11.57;86.93
66722;SHT31;53633;49.932;10.884;2023-02-18T08:42:59;11.74;85.62
66722;SHT31;53633;49.932;10.884;2023-02-18T08:45:26;11.84;85.33
66722;SHT31;53633;49.932;10.884;2023-02-18T08:47:53;12.01;84.22
66722;SHT31;53633;49.932;10.884;2023-02-18T08:50:39;11.71;84.45
66722;SHT31;53633;49.932;10.884;2023-02-18T08:53:06;11.63;84.15
66722;SHT31;53633;49.932;10.884;2023-02-18T08:55:33;11.56;83.90
66722;SHT31;53633;49.932;10.884;2023-02-18T08:58:03;11.59;84.68
66722;SHT31;53633;49.932;10.884;2023-02-18T09:00:30;11.61;84.05
66722;SHT31;53633;49.932;10.884;2023-02-18T09:02:56;11.70;84.27
66722;SHT31;53633;49.932;10.884;2023-02-18T09:05:23;11.74;84.35
66722;SHT31;53633;49.932;10.884;2023-02-18T09:07:50;11.74;85.00
66722;SHT31;53633;49.932;10.884;2023-02-18T09:10:17;11.77;84.57
66722;SHT31;53633;49.932;10.884;2023-02-18T09:12:44;11.73;84.31
66722;SHT31;53633;49.932;10.884;2023-02-18T09:15:12;11.71;84.66
66722;SHT31;53633;49.932;10.884;2023-02-18T09:17:39;11.77;84.90
66722;SHT31;53633;49.932;10.884;2023-02-18T09:20:07;11.87;84.25
66722;SHT31;53633;49.932;10.884;2023-02-18T09:22:33;11.92;84.29
66722;SHT31;53633;49.932;10.884;2023-02-18T09:25:00;12.06;83.47
66722;SHT31;53633;49.932;10.884;2023-02-18T09:27:28;12.16;83.60
66722;SHT31;53633;49.932;10.884;2023-02-18T09:29:55;12.26;83.72
66722;SHT31;53633;49.932;10.884;2023-02-18T09:32:23;12.42;82.90
66722;SHT31;53633;49.932;10.884;2023-02-18T09:35:00;12.50;82.51
66722;SHT31;53633;49.932;10.884;2023-02-18T09:37:27;12.50;81.84
66722;SHT31;53633;49.932;10.884;2023-02-18T09:39:54;12.40;81.50
66722;SHT31;53633;49.932;10.884;2023-02-18T09:42:26;12.50;81.88
66722;SHT31;53633;49.932;10.884;2023-02-18T09:44:57;12.30;81.41
66722;SHT31;53633;49.932;10.884;2023-02-18T09:47:30;12.24;81.87
66722;SHT31;53633;49.932;10.884;2023-02-18T09:50:04;12.21;82.17
66722;SHT31;53633;49.932;10.884;2023-02-18T09:52:33;12.06;82.24
66722;SHT31;53633;49.932;10.884;2023-02-18T09:55:00;12.02;82.72
66722;SHT31;53633;49.932;10.884;2023-02-18T09:57:34;11.92;83.10
66722;SHT31;53633;49.932;10.884;2023-02-18T10:00:06;11.82;83.84
66722;SHT31;53633;49.932;10.884;2023-02-18T10:02:38;11.85;83.61
66722;SHT31;53633;49.932;10.884;2023-02-18T10:05:06;11.88;82.99
66722;SHT31;53633;49.932;10.884;2023-02-18T10:07:37;11.95;83.00
66722;SHT31;53633;49.932;10.884;2023-02-18T10:10:15;12.05;82.43
66722;SHT31;53633;49.932;10.884;2023-02-18T10:12:44;12.12;83.19
66722;SHT31;53633;49.932;10.884;2023-02-18T10:15:18;12.14;82.27
66722;SHT31;53633;49.932;10.884;2023-02-18T10:17:48;11.98;82.77
66722;SHT31;53633;49.932;10.884;2023-02-18T10:20:19;12.09;82.26
66722;SHT31;53633;49.932;10.884;2023-02-18T10:22:48;12.06;82.35
66722;SHT31;53633;49.932;10.884;2023-02-18T10:25:17;11.99;82.35
66722;SHT31;53633;49.932;10.884;2023-02-18T10:27:47;12.02;82.48
66722;SHT31;53633;49.932;10.884;2023-02-18T10:30:21;11.97;82.77
66722;SHT31;53633;49.932;10.884;2023-02-18T10:32:54;11.84;82.76
66722;SHT31;53633;49.932;10.884;2023-02-18T10:35:23;11.89;82.87
66722;SHT31;53633;49.932;10.884;2023-02-18T10:38:02;11.84;82.34
66722;SHT31;53633;49.932;10.884;2023-02-18T10:40:35;11.78;82.31
66722;SHT31;53633;49.932;10.884;2023-02-18T10:43:11;11.64;82.00
66722;SHT31;53633;49.932;10.884;2023-02-18T10:45:45;11.66;81.75
66722;SHT31;53633;49.932;10.884;2023-02-18T10:48:37;11.64;81.23
66722;SHT31;53633;49.932;10.884;2023-02-18T10:51:14;11.60;80.93
66722;SHT31;53633;49.932;10.884;2023-02-18T10:53:44;11.69;80.85
66722;SHT31;53633;49.932;10.884;2023-02-18T10:56:32;11.75;81.04
66722;SHT31;53633;49.932;10.884;2023-02-18T10:59:01;11.80;81.17
66722;SHT31;53633;49.932;10.884;2023-02-18T11:01:30;11.88;80.46
66722;SHT31;53633;49.932;10.884;2023-02-18T11:04:07;11.88;80.41
66722;SHT31;53633;49.932;10.884;2023-02-18T11:06:38;11.89;79.78
66722;SHT31;53633;49.932;10.884;2023-02-18T11:09:06;11.91;78.66
66722;SHT31;53633;49.932;10.884;2023-02-18T11:11:46;11.95;78.73
66722;SHT31;53633;49.932;10.884;2023-02-18T11:14:36;11.92;77.63
66722;SHT31;53633;49.932;10.884;2023-02-18T11:17:18;11.88;78.01
66722;SHT31;53633;49.932;10.884;2023-02-18T11:19:55;11.82;76.76
66722;SHT31;53633;49.932;10.884;2023-02-18T11:22:24;11.81;75.56
66722;SHT31;53633;49.932;10.884;2023-02-18T11:24:56;11.77;75.98
66722;SHT31;53633;49.932;10.884;2023-02-18T11:27:27;11.73;76.64
66722;SHT31;53633;49.932;10.884;2023-02-18T11:30:00;11.69;76.58
66722;SHT31;53633;49.932;10.884;2023-02-18T11:32:28;11.73;76.40
66722;SHT31;53633;49.932;10.884;2023-02-18T11:34:57;11.73;75.99
66722;SHT31;53633;49.932;10.884;2023-02-18T11:37:24;11.78;76.00
66722;SHT31;53633;49.932;10.884;2023-02-18T11:39:53;11.77;75.53
66722;SHT31;53633;49.932;10.884;2023-02-18T11:42:22;11.74;76.32
66722;SHT31;53633;49.932;10.884;2023-02-18T11:44:52;11.73;75.97
66722;SHT31;53633;49.932;10.884;2023-02-18T11:47:23;11.74;76.11
66722;SHT31;53633;49.932;10.884;2023-02-18T11:50:13;11.81;75.92
66722;SHT31;53633;49.932;10.884;2023-02-18T11:52:42;11.80;76.24
66722;SHT31;53633;49.932;10.884;2023-02-18T11:55:14;11.81;76.35
66722;SHT31;53633;49.932;10.884;2023-02-18T11:57:45;11.88;76.09
66722;SHT31;53633;49.932;10.884;2023-02-18T12:00:19;11.97;75.89
66722;SHT31;53633;49.932;10.884;2023-02-18T12:02:50;11.97;75.83
66722;SHT31;53633;49.932;10.884;2023-02-18T12:05:21;11.95;76.21
66722;SHT31;53633;49.932;10.884;2023-02-18T12:07:50;11.97;75.68
66722;SHT31;53633;49.932;10.884;2023-02-18T12:10:25;11.82;75.81
66722;SHT31;53633;49.932;10.884;2023-02-18T12:12:58;11.82;75.57
66722;SHT31;53633;49.932;10.884;2023-02-18T12:15:34;11.82;75.47
66722;SHT31;53633;49.932;10.884;2023-02-18T12:18:21;11.91;75.04
66722;SHT31;53633;49.932;10.884;2023-02-18T12:21:04;11.85;74.68
66722;SHT31;53633;49.932;10.884;2023-02-18T12:23:37;11.85;74.90
66722;SHT31;53633;49.932;10.884;2023-02-18T12:26:18;11.91;75.48
66722;SHT31;53633;49.932;10.884;2023-02-18T12:29:01;11.98;74.98
66722;SHT31;53633;49.932;10.884;2023-02-18T12:31:50;11.99;75.14
66722;SHT31;53633;49.932;10.884;2023-02-18T12:34:29;11.99;74.06
66722;SHT31;53633;49.932;10.884;2023-02-18T12:37:08;12.11;74.36
66722;SHT31;53633;49.932;10.884;2023-02-18T12:39:53;12.16;73.89
66722;SHT31;53633;49.932;10.884;2023-02-18T12:42:31;12.32;73.88
66722;SHT31;53633;49.932;10.884;2023-02-18T12:45:20;12.40;73.86
66722;SHT31;53633;49.932;10.884;2023-02-18T12:48:08;12.47;72.40
66722;SHT31;53633;49.932;10.884;2023-02-18T12:51:02;12.60;72.19
66722;SHT31;53633;49.932;10.884;2023-02-18T12:56:53;12.61;71.53
66722;SHT31;53633;49.932;10.884;2023-02-18T12:59:43;12.68;71.72
66722;SHT31;53633;49.932;10.884;2023-02-18T13:02:28;12.77;71.03
66722;SHT31;53633;49.932;10.884;2023-02-18T13:05:04;12.79;71.88
66722;SHT31;53633;49.932;10.884;2023-02-18T13:07:41;12.77;70.22
66722;SHT31;53633;49.932;10.884;2023-02-18T13:13:19;13.11;70.17
66722;SHT31;53633;49.932;10.884;2023-02-18T13:15:49;13.16;70.53
66722;SHT31;53633;49.932;10.884;2023-02-18T13:18:22;13.22;69.24
66722;SHT31;53633;49.932;10.884;2023-02-18T13:20:53;13.31;68.98
66722;SHT31;53633;49.932;10.884;2023-02-18T13:23:22;13.40;68.98
66722;SHT31;53633;49.932;10.884;2023-02-18T13:25:53;13.25;69.54
66722;SHT31;53633;49.932;10.884;2023-02-18T13:28:31;12.92;69.42
66722;SHT31;53633;49.932;10.884;2023-02-18T13:31:12;12.79;71.23
66722;SHT31;53633;49.932;10.884;2023-02-18T13:33:46;12.67;70.34
66722;SHT31;53633;49.932;10.884;2023-02-18T13:36:27;12.42;70.33
66722;SHT31;53633;49.932;10.884;2023-02-18T13:39:02;12.30;71.65
66722;SHT31;53633;49.932;10.884;2023-02-18T13:41:34;12.22;71.04
66722;SHT31;53633;49.932;10.884;2023-02-18T13:44:08;12.16;70.94
66722;SHT31;53633;49.932;10.884;2023-02-18T13:46:47;12.09;71.46
66722;SHT31;53633;49.932;10.884;2023-02-18T13:49:17;12.05;71.83
66722;SHT31;53633;49.932;10.884;2023-02-18T13:51:48;11.97;71.62
66722;SHT31;53633;49.932;10.884;2023-02-18T13:54:21;11.97;71.75
66722;SHT31;53633;49.932;10.884;2023-02-18T13:56:51;11.95;71.99
66722;SHT31;53633;49.932;10.884;2023-02-18T13:59:23;12.01;71.97
66722;SHT31;53633;49.932;10.884;2023-02-18T14:01:52;11.92;72.21
66722;SHT31;53633;49.932;10.884;2023-02-18T14:04:36;11.92;72.07
66722;SHT31;53633;49.932;10.884;2023-02-18T14:07:26;11.95;72.24
66722;SHT31;53633;49.932;10.884;2023-02-18T14:09:55;11.95;72.20
66722;SHT31;53633;49.932;10.884;2023-02-18T14:12:35;11.97;71.76
66722;SHT31;53633;49.932;10.884;2023-02-18T14:18:27;11.88;72.20
66722;SHT31;53633;49.932;10.884;2023-02-18T14:21:05;11.80;73.05
66722;SHT31;53633;49.932;10.884;2023-02-18T14:23:55;11.84;72.62
66722;SHT31;53633;49.932;10.884;2023-02-18T14:26:31;11.82;72.67
66722;SHT31;53633;49.932;10.884;2023-02-18T14:29:03;11.85;72.56
66722;SHT31;53633;49.932;10.884;2023-02-18T14:31:53;11.80;73.17
66722;SHT31;53633;49.932;10.884;2023-02-18T14:37:34;11.70;73.79
66722;SHT31;53633;49.932;10.884;2023-02-18T14:40:20;11.74;73.27
66722;SHT31;53633;49.932;10.884;2023-02-18T14:42:57;11.69;74.22
66722;SHT31;53633;49.932;10.884;2023-02-18T14:45:34;11.74;73.67
66722;SHT31;53633;49.932;10.884;2023-02-18T14:48:17;11.67;73.76
66722;SHT31;53633;49.932;10.884;2023-02-18T14:50:48;11.73;73.88
66722;SHT31;53633;49.932;10.884;2023-02-18T14:53:17;11.60;74.62
66722;SHT31;53633;49.932;10.884;2023-02-18T14:55:47;11.66;74.47
66722;SHT31;53633;49.932;10.884;2023-02-18T14:58:25;11.66;74.25
66722;SHT31;53633;49.932;10.884;2023-02-18T15:00:53;11.64;74.44
66722;SHT31;53633;49.932;10.884;2023-02-18T15:03:22;11.61;74.32
66722;SHT31;53633;49.932;10.884;2023-02-18T15:05:49;11.59;74.52
66722;SHT31;53633;49.932;10.884;2023-02-18T15:08:18;11.56;74.72
66722;SHT31;53633;49.932;10.884;2023-02-18T15:10:49;11.59;74.54
66722;SHT31;53633;49.932;10.884;2023-02-18T15:13:20;11.50;74.98
66722;SHT31;53633;49.932;10.884;2023-02-18T15:15:50;11.46;75.54
66722;SHT31;53633;49.932;10.884;2023-02-18T15:18:28;11.49;75.00
66722;SHT31;53633;49.932;10.884;2023-02-18T15:20:59;11.44;75.36
66722;SHT31;53633;49.932;10.884;2023-02-18T15:23:26;11.42;75.42
66722;SHT31;53633;49.932;10.884;2023-02-18T15:25:54;11.43;75.86
66722;SHT31;53633;49.932;10.884;2023-02-18T15:28:24;11.34;76.06
66722;SHT31;53633;49.932;10.884;2023-02-18T15:30:51;11.36;76.19
66722;SHT31;53633;49.932;10.884;2023-02-18T15:33:20;11.32;76.53
66722;SHT31;53633;49.932;10.884;2023-02-18T15:35:48;11.37;76.41
66722;SHT31;53633;49.932;10.884;2023-02-18T15:38:16;11.36;76.38
66722;SHT31;53633;49.932;10.884;2023-02-18T15:40:46;11.32;76.83
66722;SHT31;53633;49.932;10.884;2023-02-18T15:43:17;11.29;77.06
66722;SHT31;53633;49.932;10.884;2023-02-18T15:45:46;11.30;76.92
66722;SHT31;53633;49.932;10.884;2023-02-18T15:48:23;11.36;76.83
66722;SHT31;53633;49.932;10.884;2023-02-18T15:50:56;11.29;76.91
66722;SHT31;53633;49.932;10.884;2023-02-18T15:53:37;11.23;77.36
66722;SHT31;53633;49.932;10.884;2023-02-18T15:56:06;11.32;77.14
66722;SHT31;53633;49.932;10.884;2023-02-18T15:58:36;11.23;77.66
66722;SHT31;53633;49.932;10.884;2023-02-18T16:01:05;11.24;77.51
66722;SHT31;53633;49.932;10.884;2023-02-18T16:03:44;11.23;77.58
66722;SHT31;53633;49.932;10.884;2023-02-18T16:06:18;11.15;78.18
66722;SHT31;53633;49.932;10.884;2023-02-18T16:08:55;11.15;78.22
66722;SHT31;53633;49.932;10.884;2023-02-18T16:11:24;11.08;78.67
66722;SHT31;53633;49.932;10.884;2023-02-18T16:13:51;11.05;78.60
66722;SHT31;53633;49.932;10.884;2023-02-18T16:16:22;10.96;79.19